Time;durP1;ratioP1;P1;durP2;ratioP2;P2;SDS_P1;SDS_P2;PMS_P1;PMS_P2;Temp;Humidity;BMP_temperature;BMP_pressure;BME280_temperature;BME280_humidity;BME280_pressure;Samples;Min_cycle;Max_cycle;Signal;HPM_P1;HPM_P2
2022/02/28 00:01:26;;;;;;;73.27;14.57;;;3.90;53.80;;;;;;4859843;29;20193;-87
2022/02/28 00:03:53;;;;;;;72.18;12.38;;;3.90;54.70;;;;;;4859539;29;20211;-87
2022/02/28 00:06:19;;;;;;;73.35;11.23;;;3.90;53.70;;;;;;4860688;29;20256;-87
2022/02/28 00:08:45;;;;;;;71.80;12.80;;;3.90;53.40;;;;;;4859605;29;20203;-87
2022/02/28 00:11:11;;;;;;;69.80;13.77;;;3.80;54.90;;;;;;4859714;29;20178;-87
2022/02/28 00:13:37;;;;;;;69.32;11.55;;;3.80;55.70;;;;;;4860830;29;20476;-88
2022/02/28 00:16:03;;;;;;;71.47;13.47;;;3.80;55.00;;;;;;4860666;29;20248;-87
2022/02/28 00:18:29;;;;;;;70.90;11.30;;;3.80;56.00;;;;;;4860985;29;20412;-87
2022/02/28 00:20:55;;;;;;;71.00;14.40;;;3.80;56.60;;;;;;4860925;29;20414;-87
2022/02/28 00:23:20;;;;;;;71.60;13.27;;;3.80;56.60;;;;;;4860637;29;20192;-87
2022/02/28 00:25:46;;;;;;;70.90;14.70;;;3.70;57.00;;;;;;4859397;29;20438;-87
2022/02/28 00:28:12;;;;;;;70.85;15.18;;;3.70;57.50;;;;;;4859384;29;20263;-87
2022/02/28 00:30:38;;;;;;;72.87;12.83;;;3.70;57.80;;;;;;4859430;29;20262;-87
2022/02/28 00:33:05;;;;;;;71.10;14.82;;;3.70;58.10;;;;;;4859580;29;20235;-87
2022/02/28 00:35:31;;;;;;;70.97;14.60;;;3.80;57.60;;;;;;4861031;29;20592;-87
2022/02/28 00:37:57;;;;;;;73.37;14.57;;;3.70;55.50;;;;;;4859567;29;20227;-88
2022/02/28 00:40:23;;;;;;;70.40;12.90;;;3.60;57.70;;;;;;4859259;29;20427;-87
2022/02/28 00:42:49;;;;;;;72.93;12.40;;;3.60;60.50;;;;;;4859381;29;20486;-87
2022/02/28 00:45:15;;;;;;;70.73;11.47;;;3.70;59.60;;;;;;4860215;29;20210;-87
2022/02/28 00:47:41;;;;;;;72.47;12.47;;;3.60;60.70;;;;;;4860698;29;20837;-87
2022/02/28 00:50:10;;;;;;;75.90;12.18;;;3.50;62.00;;;;;;4862468;29;20408;-87
2022/02/28 00:52:35;;;;;;;72.88;10.45;;;3.50;65.30;;;;;;4862658;29;20210;-87
2022/02/28 00:55:02;;;;;;;70.27;10.60;;;3.60;64.20;;;;;;4864073;29;20179;-87
2022/02/28 00:57:28;;;;;;;71.63;9.55;;;3.50;64.80;;;;;;4864139;29;20705;-87
2022/02/28 00:59:53;;;;;;;71.53;11.90;;;3.50;63.30;;;;;;4863624;29;20200;-87
2022/02/28 01:02:20;;;;;;;77.40;11.83;;;3.60;63.80;;;;;;4862401;29;20199;-88
2022/02/28 01:04:47;;;;;;;77.95;16.33;;;3.50;61.80;;;;;;4863484;29;20179;-87
2022/02/28 01:07:13;;;;;;;79.85;17.95;;;3.50;62.00;;;;;;4862243;29;20188;-87
2022/02/28 01:09:42;;;;;;;75.70;11.53;;;3.50;63.30;;;;;;4863649;29;20768;-87
2022/02/28 01:12:08;;;;;;;70.75;12.68;;;3.40;63.80;;;;;;4863954;29;20180;-89
2022/02/28 01:14:35;;;;;;;77.72;18.15;;;3.50;63.80;;;;;;4862453;29;20254;-86
2022/02/28 01:17:02;;;;;;;71.93;14.68;;;3.50;63.50;;;;;;4863408;29;20187;-87
2022/02/28 01:19:30;;;;;;;72.18;16.17;;;3.50;62.80;;;;;;4863445;29;20547;-87
2022/02/28 01:21:56;;;;;;;74.05;19.63;;;3.50;66.00;;;;;;4863227;29;20195;-87
2022/02/28 01:24:22;;;;;;;70.20;8.17;;;3.60;61.50;;;;;;4863414;29;20533;-87
2022/02/28 01:26:48;;;;;;;73.30;11.90;;;3.80;58.60;;;;;;4861949;29;20199;-87
2022/02/28 01:29:14;;;;;;;71.60;16.25;;;3.90;58.60;;;;;;4862006;29;20175;-89
2022/02/28 01:31:40;;;;;;;71.43;14.30;;;3.90;56.20;;;;;;4861982;29;20195;-88
2022/02/28 01:34:06;;;;;;;72.40;14.80;;;3.90;54.70;;;;;;4863062;29;20266;-87
2022/02/28 01:36:32;;;;;;;71.30;14.90;;;3.70;55.30;;;;;;4861723;29;20627;-87
2022/02/28 01:39:00;;;;;;;70.60;13.00;;;3.80;56.40;;;;;;4861848;29;20195;-88
2022/02/28 01:41:26;;;;;;;73.57;16.20;;;3.90;57.80;;;;;;4861635;29;20171;-88
2022/02/28 01:43:52;;;;;;;69.30;11.88;;;3.90;54.80;;;;;;4861521;29;20255;-87
2022/02/28 01:46:18;;;;;;;73.85;13.88;;;3.80;53.40;;;;;;4861513;29;20195;-88
2022/02/28 01:48:43;;;;;;;71.83;12.80;;;3.80;57.10;;;;;;4861637;29;20663;-87
2022/02/28 01:51:09;;;;;;;71.20;12.87;;;3.90;56.50;;;;;;4862938;29;20473;-88
2022/02/28 01:53:38;;;;;;;71.53;16.17;;;3.90;56.10;;;;;;4862781;29;20412;-90
2022/02/28 01:56:04;;;;;;;73.05;14.80;;;4.00;54.00;;;;;;4861504;29;20262;-90
2022/02/28 01:58:37;;;;;;;72.97;11.80;;;4.00;52.80;;;;;;4860794;29;20179;-87
2022/02/28 02:01:05;;;;;;;72.25;12.13;;;4.00;51.70;;;;;;4862574;29;20540;-87
2022/02/28 02:03:31;;;;;;;69.10;10.40;;;4.10;50.70;;;;;;4861125;29;20206;-87
2022/02/28 02:05:57;;;;;;;74.23;12.40;;;4.00;49.60;;;;;;4862483;29;20194;-87
2022/02/28 02:08:23;;;;;;;70.17;10.20;;;4.00;50.20;;;;;;4862816;29;20193;-87
2022/02/28 02:10:49;;;;;;;70.20;11.67;;;4.00;48.90;;;;;;4862530;29;20408;-87
2022/02/28 02:13:15;;;;;;;69.78;11.38;;;4.00;49.60;;;;;;4861480;29;20416;-87
2022/02/28 02:15:41;;;;;;;71.15;11.00;;;3.90;50.10;;;;;;4860996;29;20301;-88
2022/02/28 02:18:07;;;;;;;69.28;10.07;;;3.90;49.60;;;;;;4861156;29;20266;-88
2022/02/28 02:20:35;;;;;;;72.38;8.70;;;3.90;49.60;;;;;;4860923;29;20551;-88
2022/02/28 02:23:06;;;;;;;68.97;8.55;;;3.90;49.50;;;;;;4860780;29;20737;-88
2022/02/28 02:25:33;;;;;;;70.88;10.60;;;3.80;49.30;;;;;;4862421;29;20198;-88
2022/02/28 02:28:03;;;;;;;70.30;12.75;;;3.80;49.60;;;;;;4860927;29;20171;-88
2022/02/28 02:30:29;;;;;;;72.07;14.10;;;3.80;51.00;;;;;;4861163;29;20228;-88
2022/02/28 02:32:55;;;;;;;74.55;12.02;;;3.80;50.50;;;;;;4860873;29;20180;-88
2022/02/28 02:35:21;;;;;;;70.60;11.17;;;3.80;49.20;;;;;;4862104;29;20246;-88
2022/02/28 02:37:47;;;;;;;71.10;11.33;;;3.80;48.70;;;;;;4860689;29;20932;-88
2022/02/28 02:40:13;;;;;;;71.47;14.63;;;3.70;49.60;;;;;;4861955;29;20210;-88
2022/02/28 02:42:39;;;;;;;71.93;13.93;;;3.70;51.20;;;;;;4861628;29;20262;-88
2022/02/28 02:45:05;;;;;;;71.32;16.45;;;3.60;51.50;;;;;;4860447;29;20255;-88
2022/02/28 02:47:31;;;;;;;72.85;14.35;;;3.60;51.30;;;;;;4861715;29;20179;-88
2022/02/28 02:49:57;;;;;;;71.20;12.70;;;3.60;51.00;;;;;;4860397;29;20180;-88
2022/02/28 02:52:23;;;;;;;71.50;15.37;;;3.50;52.60;;;;;;4861726;29;20171;-88
2022/02/28 02:54:49;;;;;;;70.80;13.07;;;3.60;51.20;;;;;;4861607;29;20418;-88
2022/02/28 02:57:16;;;;;;;71.63;15.30;;;3.50;51.90;;;;;;4861488;29;20273;-88
2022/02/28 02:59:42;;;;;;;72.80;12.75;;;3.40;52.20;;;;;;4861256;29;20182;-88
2022/02/28 03:02:08;;;;;;;74.30;15.77;;;3.40;52.20;;;;;;4861464;29;20195;-88
2022/02/28 03:04:37;;;;;;;71.00;14.17;;;3.40;51.40;;;;;;4860188;29;20191;-88
2022/02/28 03:07:12;;;;;;;70.53;11.80;;;3.40;52.60;;;;;;4861308;29;20198;-88
2022/02/28 03:09:38;;;;;;;69.57;10.77;;;3.30;53.00;;;;;;4860232;29;20261;-88
2022/02/28 03:12:04;;;;;;;70.63;10.93;;;3.30;54.00;;;;;;4860129;29;20592;-88
2022/02/28 03:14:29;;;;;;;69.07;10.43;;;3.30;52.80;;;;;;4861579;29;20643;-88
2022/02/28 03:16:55;;;;;;;70.67;12.10;;;3.40;53.10;;;;;;4861133;29;20844;-88
2022/02/28 03:19:21;;;;;;;70.80;14.23;;;3.30;52.90;;;;;;4861339;29;20176;-88
2022/02/28 03:21:49;;;;;;;71.67;11.00;;;3.30;52.70;;;;;;4861581;29;20545;-88
2022/02/28 03:24:15;;;;;;;72.30;14.25;;;3.20;54.10;;;;;;4861158;29;20219;-88
2022/02/28 03:26:41;;;;;;;73.57;11.20;;;3.30;52.20;;;;;;4860558;29;20191;-88
2022/02/28 03:29:07;;;;;;;70.80;12.30;;;3.20;54.00;;;;;;4860024;29;20559;-88
2022/02/28 03:31:41;;;;;;;70.53;11.93;;;3.20;53.30;;;;;;4861167;29;20750;-88
2022/02/28 03:34:07;;;;;;;71.53;11.02;;;3.20;54.40;;;;;;4860128;29;20265;-88
2022/02/28 03:36:33;;;;;;;73.30;9.77;;;3.10;55.40;;;;;;4860110;29;20327;-88
2022/02/28 03:38:58;;;;;;;73.07;11.43;;;3.10;54.60;;;;;;4860970;29;20662;-88
2022/02/28 03:41:24;;;;;;;72.50;11.50;;;3.10;55.20;;;;;;4859883;29;20704;-88
2022/02/28 03:43:50;;;;;;;70.50;10.90;;;3.10;55.10;;;;;;4859783;29;20462;-88
2022/02/28 03:46:16;;;;;;;73.50;11.10;;;3.10;54.50;;;;;;4860035;29;20187;-88
2022/02/28 03:48:47;;;;;;;70.80;10.60;;;3.00;55.30;;;;;;4860290;29;20186;-88
2022/02/28 03:51:20;;;;;;;69.43;9.93;;;2.90;57.40;;;;;;4860013;29;20416;-88
2022/02/28 03:53:48;;;;;;;72.82;12.55;;;2.80;59.50;;;;;;4859787;29;20164;-88
2022/02/28 03:56:14;;;;;;;75.32;15.48;;;2.80;63.50;;;;;;4861154;29;20230;-88
2022/02/28 03:58:40;;;;;;;69.87;9.20;;;2.70;63.10;;;;;;4859554;29;20195;-88
2022/02/28 04:01:06;;;;;;;79.77;15.37;;;2.60;65.20;;;;;;4859683;29;20179;-88
2022/02/28 04:03:32;;;;;;;74.15;16.83;;;2.60;69.70;;;;;;4860613;29;20297;-88
2022/02/28 04:05:58;;;;;;;75.67;16.43;;;2.60;67.00;;;;;;4861143;29;20270;-88
2022/02/28 04:08:26;;;;;;;70.87;10.90;;;2.50;72.90;;;;;;4860756;29;20400;-88
2022/02/28 04:10:53;;;;;;;73.50;11.60;;;2.50;74.60;;;;;;4861101;29;20624;-87
2022/02/28 04:13:19;;;;;;;71.87;10.97;;;2.60;72.50;;;;;;4859438;29;20266;-87
2022/02/28 04:15:44;;;;;;;72.90;11.33;;;2.70;70.20;;;;;;4860720;29;20940;-88
2022/02/28 04:18:10;;;;;;;74.20;13.63;;;2.70;69.20;;;;;;4859542;29;20210;-88
2022/02/28 04:20:36;;;;;;;72.53;13.98;;;2.70;67.10;;;;;;4860668;29;20180;-88
2022/02/28 04:23:02;;;;;;;70.47;15.03;;;2.70;68.70;;;;;;4862797;29;20528;-88
2022/02/28 04:25:31;;;;;;;71.20;14.20;;;2.70;67.10;;;;;;4864242;29;20434;-88
2022/02/28 04:27:56;;;;;;;73.63;14.52;;;2.80;66.40;;;;;;4864254;29;20404;-88
2022/02/28 04:30:22;;;;;;;74.83;13.97;;;2.80;66.30;;;;;;4864268;29;20758;-88
2022/02/28 04:32:48;;;;;;;71.20;11.50;;;2.70;65.50;;;;;;4862872;29;20551;-88
2022/02/28 04:35:13;;;;;;;71.30;12.03;;;2.70;66.60;;;;;;4862991;29;20179;-88
2022/02/28 04:37:39;;;;;;;71.70;13.93;;;2.70;66.40;;;;;;4862929;29;20179;-87
2022/02/28 04:40:06;;;;;;;73.57;14.70;;;2.70;66.50;;;;;;4863115;29;20202;-88
2022/02/28 04:42:32;;;;;;;76.50;14.45;;;2.70;66.80;;;;;;4862894;29;20589;-88
2022/02/28 04:44:57;;;;;;;71.77;12.70;;;2.70;66.70;;;;;;4863999;29;20250;-88
2022/02/28 04:47:23;;;;;;;75.43;12.83;;;2.70;67.30;;;;;;4863034;29;20282;-88
2022/02/28 04:49:49;;;;;;;71.82;11.20;;;2.70;66.70;;;;;;4864593;29;20408;-88
2022/02/28 04:52:15;;;;;;;75.43;13.73;;;2.60;67.70;;;;;;4863166;29;20176;-88
2022/02/28 04:54:41;;;;;;;73.27;12.40;;;2.60;66.80;;;;;;4864218;29;20172;-88
2022/02/28 04:57:06;;;;;;;73.43;15.53;;;2.60;65.70;;;;;;4863959;29;20202;-88
2022/02/28 04:59:33;;;;;;;74.23;14.50;;;2.60;63.70;;;;;;4864081;29;20181;-88
2022/02/28 05:02:01;;;;;;;71.70;11.45;;;2.60;64.70;;;;;;4863774;29;20179;-87
2022/02/28 05:04:26;;;;;;;70.55;12.18;;;2.50;65.30;;;;;;4926822;23;20231;-85
2022/02/28 05:06:52;;;;;;;71.27;9.87;;;2.50;66.60;;;;;;4868577;29;20202;-85
2022/02/28 05:09:18;;;;;;;72.97;14.63;;;2.50;66.30;;;;;;4869720;29;20172;-85
2022/02/28 05:11:43;;;;;;;75.63;14.80;;;2.50;66.50;;;;;;4870155;29;20171;-85
2022/02/28 05:14:09;;;;;;;71.57;14.10;;;2.40;68.00;;;;;;4871021;29;20182;-85
2022/02/28 05:16:35;;;;;;;72.67;14.80;;;2.30;70.70;;;;;;4873217;29;20224;-85
2022/02/28 05:19:01;;;;;;;70.23;12.17;;;2.20;73.00;;;;;;4870260;29;20503;-85
2022/02/28 05:21:27;;;;;;;77.37;12.60;;;2.20;75.00;;;;;;4872528;29;20473;-85
2022/02/28 05:23:52;;;;;;;71.57;10.10;;;2.20;76.20;;;;;;4872570;29;20483;-85
2022/02/28 05:26:18;;;;;;;74.30;13.00;;;2.00;77.10;;;;;;4873434;29;20824;-85
2022/02/28 05:28:44;;;;;;;71.53;11.53;;;2.00;80.00;;;;;;4873079;29;20171;-85
2022/02/28 05:31:09;;;;;;;72.43;13.20;;;2.10;77.70;;;;;;4872615;29;20179;-85
2022/02/28 05:33:35;;;;;;;70.97;12.23;;;2.20;76.20;;;;;;4873060;29;20177;-85
2022/02/28 05:36:01;;;;;;;72.47;10.50;;;2.10;77.40;;;;;;4877425;29;20293;-86
2022/02/28 05:38:26;;;;;;;73.50;12.27;;;2.20;77.40;;;;;;4878788;29;20262;-85
2022/02/28 05:40:53;;;;;;;76.37;14.30;;;2.20;76.40;;;;;;4877586;29;20432;-85
2022/02/28 05:43:19;;;;;;;73.05;13.52;;;2.20;74.20;;;;;;4877026;29;20269;-85
2022/02/28 05:45:45;;;;;;;72.53;12.30;;;2.20;74.00;;;;;;4877630;29;20196;-85
2022/02/28 05:48:11;;;;;;;73.77;12.27;;;2.20;75.60;;;;;;4878243;29;20420;-85
2022/02/28 05:50:36;;;;;;;75.30;13.33;;;2.20;74.40;;;;;;4873646;29;20167;-85
2022/02/28 05:53:02;;;;;;;72.10;13.50;;;2.20;72.30;;;;;;4866569;29;20175;-85
2022/02/28 05:55:29;;;;;;;73.57;13.13;;;2.20;72.00;;;;;;4867383;29;20542;-85
2022/02/28 05:57:55;;;;;;;74.95;14.20;;;2.10;74.30;;;;;;4868268;29;20171;-85
2022/02/28 06:00:21;;;;;;;74.78;12.25;;;2.00;75.40;;;;;;4869144;29;20181;-85
2022/02/28 06:02:48;;;;;;;71.10;10.87;;;2.00;76.60;;;;;;4869127;29;20203;-85
2022/02/28 06:05:14;;;;;;;75.43;12.25;;;2.00;78.20;;;;;;4869975;29;20395;-85
2022/02/28 06:07:40;;;;;;;76.40;15.07;;;2.00;79.20;;;;;;4870046;29;20261;-85
2022/02/28 06:10:05;;;;;;;72.47;12.30;;;2.00;78.00;;;;;;4872108;29;20164;-85
2022/02/28 06:12:31;;;;;;;73.43;14.57;;;2.00;77.50;;;;;;4871059;29;20175;-85
2022/02/28 06:15:15;;;;;;;70.17;10.27;;;2.00;78.00;;;;;;4872590;29;20656;-85
2022/02/28 06:17:40;;;;;;;74.80;12.05;;;2.00;76.10;;;;;;4873724;29;20191;-85
2022/02/28 06:20:06;;;;;;;71.60;11.20;;;2.00;77.30;;;;;;4870112;29;20179;-85
2022/02/28 06:22:32;;;;;;;72.20;11.75;;;1.90;79.20;;;;;;4870686;29;20198;-85
2022/02/28 06:24:58;;;;;;;73.13;13.17;;;1.90;80.30;;;;;;4870629;29;20251;-85
2022/02/28 06:27:25;;;;;;;72.67;11.70;;;1.80;80.70;;;;;;4871075;29;20347;-86
2022/02/28 06:29:51;;;;;;;74.30;13.70;;;1.60;89.00;;;;;;4870244;29;20186;-85
2022/02/28 06:32:19;;;;;;;72.43;15.80;;;1.50;90.30;;;;;;4870241;29;20175;-85
2022/02/28 06:34:48;;;;;;;74.38;15.60;;;1.50;92.10;;;;;;4869089;29;20175;-85
2022/02/28 06:37:16;;;;;;;73.10;14.73;;;1.50;92.00;;;;;;4871592;29;20196;-85
2022/02/28 06:39:42;;;;;;;73.82;14.25;;;1.50;92.80;;;;;;4869309;29;20701;-85
2022/02/28 06:42:10;;;;;;;71.57;12.60;;;1.50;93.50;;;;;;4869304;29;20207;-85
2022/02/28 06:44:36;;;;;;;79.70;14.13;;;1.60;92.70;;;;;;4867643;29;20455;-85
2022/02/28 06:47:02;;;;;;;75.00;14.83;;;1.70;91.40;;;;;;4868003;29;20267;-85
2022/02/28 06:49:28;;;;;;;71.97;11.07;;;1.70;91.20;;;;;;4865518;29;20171;-85
2022/02/28 06:51:53;;;;;;;73.13;13.70;;;1.80;90.90;;;;;;4866150;29;20412;-85
2022/02/28 06:54:22;;;;;;;72.67;10.67;;;1.80;91.50;;;;;;4865599;29;20175;-85
2022/02/28 06:56:47;;;;;;;77.57;13.77;;;1.80;91.50;;;;;;4865776;29;20183;-85
2022/02/28 06:59:13;;;;;;;72.90;11.87;;;1.80;91.60;;;;;;4869405;29;20548;-85
2022/02/28 07:01:39;;;;;;;80.30;14.87;;;1.80;91.50;;;;;;4873569;29;20171;-84
2022/02/28 07:04:07;;;;;;;75.05;13.90;;;1.90;90.70;;;;;;4872119;29;20230;-85
2022/02/28 07:06:34;;;;;;;74.25;13.52;;;1.90;90.20;;;;;;4871711;29;20248;-85
2022/02/28 07:09:00;;;;;;;73.95;13.10;;;1.90;90.10;;;;;;4871865;29;20219;-85
2022/02/28 07:11:26;;;;;;;76.40;15.70;;;1.90;89.00;;;;;;4871836;29;20168;-85
2022/02/28 07:13:52;;;;;;;80.17;17.53;;;2.00;88.50;;;;;;4869333;29;20186;-85
2022/02/28 07:16:18;;;;;;;77.00;16.65;;;2.00;87.60;;;;;;4870302;29;20432;-85
2022/02/28 07:18:44;;;;;;;75.28;16.00;;;2.00;87.60;;;;;;4870566;29;20175;-85
2022/02/28 07:21:12;;;;;;;77.10;19.07;;;2.00;88.50;;;;;;4871267;29;20182;-85
2022/02/28 07:23:41;;;;;;;74.85;15.10;;;2.00;89.80;;;;;;4871990;29;20195;-85
2022/02/28 07:26:06;;;;;;;75.32;13.38;;;2.00;90.20;;;;;;4867000;29;20241;-85
2022/02/28 07:28:32;;;;;;;75.80;13.30;;;2.00;90.60;;;;;;4865185;29;20179;-85
2022/02/28 07:30:58;;;;;;;74.90;15.20;;;2.00;90.70;;;;;;4862833;29;20171;-85
2022/02/28 07:33:27;;;;;;;77.63;17.02;;;2.10;90.20;;;;;;4863923;29;20407;-85
2022/02/28 07:35:53;;;;;;;76.43;13.60;;;2.10;90.40;;;;;;4863193;29;20203;-85
2022/02/28 07:38:18;;;;;;;77.00;15.17;;;2.10;90.70;;;;;;4863587;29;20246;-85
2022/02/28 07:40:44;;;;;;;73.67;13.20;;;2.10;91.40;;;;;;4863836;29;20509;-85
2022/02/28 07:43:11;;;;;;;78.35;12.10;;;2.10;91.70;;;;;;4863726;29;20251;-85
2022/02/28 07:45:37;;;;;;;75.97;14.30;;;2.10;92.30;;;;;;4862741;29;20198;-85
2022/02/28 07:48:03;;;;;;;74.37;12.20;;;2.10;92.90;;;;;;4864744;29;20175;-84
2022/02/28 07:50:29;;;;;;;74.80;13.85;;;2.10;93.40;;;;;;4864533;29;20243;-85
2022/02/28 07:52:55;;;;;;;78.20;12.47;;;2.10;94.20;;;;;;4863284;29;20175;-85
2022/02/28 07:55:20;;;;;;;76.40;14.97;;;2.00;96.90;;;;;;4863442;29;20179;-85
2022/02/28 07:57:46;;;;;;;78.57;16.90;;;1.90;99.90;;;;;;4866878;29;20529;-85
2022/02/28 08:00:12;;;;;;;79.80;17.80;;;1.90;99.90;;;;;;4870283;29;20177;-85
2022/02/28 08:02:40;;;;;;;77.40;19.33;;;2.00;99.90;;;;;;4869550;29;20221;-85
2022/02/28 08:05:09;;;;;;;79.22;22.58;;;2.10;99.90;;;;;;4872404;29;20156;-85
2022/02/28 08:07:40;;;;;;;78.43;17.70;;;2.10;99.90;;;;;;4871025;29;20497;-85
2022/02/28 08:10:06;;;;;;;79.38;22.77;;;2.20;99.90;;;;;;4872223;29;20219;-85
2022/02/28 08:12:32;;;;;;;79.38;25.80;;;2.20;99.90;;;;;;4871472;29;20175;-85
2022/02/28 08:14:57;;;;;;;79.97;26.50;;;2.30;99.90;;;;;;4872160;29;20172;-85
2022/02/28 08:17:23;;;;;;;81.73;24.73;;;2.40;98.90;;;;;;4871898;29;20262;-85
2022/02/28 08:19:52;;;;;;;78.93;19.23;;;2.50;98.30;;;;;;4872843;29;20178;-85
2022/02/28 08:22:21;;;;;;;73.97;16.42;;;2.60;96.60;;;;;;4872698;29;20487;-85
2022/02/28 08:24:46;;;;;;;78.20;16.00;;;2.70;95.60;;;;;;4872140;29;20201;-85
2022/02/28 08:27:12;;;;;;;80.60;15.40;;;2.70;94.30;;;;;;4872856;29;20184;-85
2022/02/28 08:29:37;;;;;;;79.77;15.17;;;2.80;93.50;;;;;;4872712;29;20318;-85
2022/02/28 08:32:04;;;;;;;73.73;13.40;;;2.80;90.30;;;;;;4869889;29;20204;-85
2022/02/28 08:34:32;;;;;;;81.13;17.98;;;2.90;86.80;;;;;;4874812;29;20195;-85
2022/02/28 08:36:58;;;;;;;74.13;12.93;;;3.00;80.30;;;;;;4875948;29;20671;-86
2022/02/28 08:39:24;;;;;;;73.50;14.50;;;3.00;78.50;;;;;;4875695;29;20179;-85
2022/02/28 08:41:49;;;;;;;73.53;12.20;;;3.20;70.70;;;;;;4875376;29;20172;-86
2022/02/28 08:44:15;;;;;;;73.27;10.40;;;3.20;66.90;;;;;;4874224;29;20178;-85
2022/02/28 08:46:41;;;;;;;73.10;14.43;;;3.30;64.90;;;;;;4871510;29;20187;-85
2022/02/28 08:49:07;;;;;;;75.97;15.80;;;3.30;63.20;;;;;;4871589;29;20156;-86
2022/02/28 08:51:33;;;;;;;78.85;18.45;;;3.40;61.90;;;;;;4867250;29;20408;-86
2022/02/28 08:54:02;;;;;;;75.40;16.33;;;3.50;59.00;;;;;;4868556;29;20534;-86
2022/02/28 08:56:28;;;;;;;79.80;18.67;;;3.50;57.00;;;;;;4869614;29;20578;-86
2022/02/28 08:58:53;;;;;;;72.97;11.40;;;3.60;55.40;;;;;;4867683;29;20188;-85
2022/02/28 09:01:19;;;;;;;72.73;11.63;;;3.60;57.20;;;;;;4867167;29;20171;-85
2022/02/28 09:03:45;;;;;;;74.40;12.40;;;3.70;51.70;;;;;;4867829;29;20203;-86
2022/02/28 09:06:10;;;;;;;74.27;13.00;;;3.80;48.40;;;;;;4866829;29;20290;-85
2022/02/28 09:08:36;;;;;;;72.17;11.27;;;3.80;45.40;;;;;;4862932;29;20408;-85
2022/02/28 09:11:02;;;;;;;72.37;11.70;;;3.90;46.30;;;;;;4864626;29;20162;-85
2022/02/28 09:13:27;;;;;;;73.90;14.37;;;3.90;45.00;;;;;;4864424;29;20237;-86
2022/02/28 09:15:53;;;;;;;75.57;14.23;;;4.00;45.40;;;;;;4864292;29;20192;-86
2022/02/28 09:18:19;;;;;;;76.80;14.47;;;4.10;43.50;;;;;;4864330;29;20170;-86
2022/02/28 09:20:45;;;;;;;73.80;13.32;;;4.10;40.80;;;;;;4863605;29;20427;-85
2022/02/28 09:23:11;;;;;;;74.00;12.47;;;4.20;41.90;;;;;;4863986;29;20187;-86
2022/02/28 09:25:36;;;;;;;73.53;11.80;;;4.30;37.80;;;;;;4864938;29;20583;-86
2022/02/28 09:28:05;;;;;;;75.97;12.57;;;4.40;36.90;;;;;;4865108;29;20618;-86
2022/02/28 09:30:30;;;;;;;83.75;14.75;;;4.40;35.70;;;;;;4865117;29;20686;-86
2022/02/28 09:32:56;;;;;;;71.80;14.33;;;4.50;34.00;;;;;;4865995;29;20167;-86
2022/02/28 09:35:24;;;;;;;77.72;21.90;;;4.60;33.10;;;;;;4864978;29;20176;-86
2022/02/28 09:37:50;;;;;;;75.75;20.05;;;4.70;30.60;;;;;;4865460;29;20199;-86
2022/02/28 09:40:17;;;;;;;75.22;16.55;;;4.80;28.70;;;;;;4863655;29;20179;-86
2022/02/28 09:42:45;;;;;;;71.97;11.50;;;4.90;29.50;;;;;;4864342;29;20197;-86
2022/02/28 09:45:10;;;;;;;76.22;16.40;;;5.00;26.20;;;;;;4864521;29;20171;-85
2022/02/28 09:47:37;;;;;;;71.47;10.50;;;5.10;26.30;;;;;;4865157;29;20223;-86
2022/02/28 09:50:03;;;;;;;75.45;18.10;;;5.20;24.20;;;;;;4865604;29;20408;-86
2022/02/28 09:52:30;;;;;;;73.47;17.92;;;5.30;25.20;;;;;;4863631;29;20215;-85
2022/02/28 09:54:56;;;;;;;75.15;12.50;;;5.40;19.20;;;;;;4866215;29;20651;-86
2022/02/28 09:57:22;;;;;;;82.00;15.90;;;5.50;20.90;;;;;;4866330;29;20198;-86
2022/02/28 09:59:52;;;;;;;78.63;18.63;;;5.60;15.00;;;;;;4865671;29;20416;-86
2022/02/28 10:02:17;;;;;;;81.82;24.88;;;5.80;4.00;;;;;;4866564;29;20195;-86
2022/02/28 10:04:43;;;;;;;75.23;15.93;;;5.90;1.00;;;;;;4865624;29;20198;-86
2022/02/28 10:07:25;;;;;;;79.97;12.93;;;6.00;1.00;;;;;;4867927;29;20743;-86
2022/02/28 10:10:10;;;;;;;73.07;13.02;;;6.10;1.00;;;;;;4866394;29;20408;-86
2022/02/28 10:12:37;;;;;;;75.50;13.48;;;6.30;1.00;;;;;;4864907;29;20178;-86
2022/02/28 10:15:10;;;;;;;72.97;13.82;;;6.40;1.00;;;;;;4863666;29;20179;-86
2022/02/28 10:17:50;;;;;;;73.72;11.70;;;6.60;1.00;;;;;;4864043;29;20250;-85
2022/02/28 10:20:28;;;;;;;75.05;11.85;;;6.70;1.00;;;;;;4864496;29;20163;-86
2022/02/28 10:22:57;;;;;;;75.90;10.23;;;6.70;1.00;;;;;;4865331;29;20616;-86
2022/02/28 10:25:34;;;;;;;71.78;10.35;;;6.80;1.00;;;;;;4866066;29;20172;-86
2022/02/28 10:28:15;;;;;;;72.88;10.80;;;6.90;1.00;;;;;;4864766;29;20602;-86
2022/02/28 10:31:00;;;;;;;73.53;14.15;;;7.10;1.00;;;;;;4865897;29;20159;-86
2022/02/28 10:33:41;;;;;;;75.40;11.00;;;7.10;1.00;;;;;;4867057;29;20548;-86
2022/02/28 10:36:17;;;;;;;74.35;12.20;;;7.20;1.00;;;;;;4865209;29;20195;-86
2022/02/28 10:38:46;;;;;;;72.47;11.68;;;7.40;1.00;;;;;;4866161;29;20539;-86
2022/02/28 10:41:38;;;;;;;68.45;10.32;;;7.40;1.00;;;;;;4864171;29;20512;-86
2022/02/28 10:44:07;;;;;;;73.28;13.32;;;7.30;1.00;;;;;;4864600;29;20696;-86
2022/02/28 10:46:42;;;;;;;72.45;13.95;;;7.50;1.00;;;;;;4861922;29;20196;-86
2022/02/28 10:49:17;;;;;;;74.40;12.73;;;7.60;1.00;;;;;;4861240;29;20166;-86
2022/02/28 10:51:59;;;;;;;72.93;13.43;;;7.70;1.00;;;;;;4861947;29;20155;-87
2022/02/28 10:54:28;;;;;;;72.10;12.90;;;7.70;1.00;;;;;;4860523;29;20167;-86
2022/02/28 10:56:54;;;;;;;76.50;24.20;;;7.70;1.00;;;;;;4860861;29;20198;-86
2022/02/28 10:59:22;;;;;;;75.17;25.93;;;7.80;1.00;;;;;;4861781;29;20172;-86
2022/02/28 11:01:51;;;;;;;81.22;35.03;;;7.90;1.00;;;;;;4862127;29;20568;-86
2022/02/28 11:06:13;;;;;;;83.68;29.98;;;8.00;1.00;;;;;;4982751;23;20242;-84
2022/02/28 11:09:13;;;;;;;76.75;25.92;;;8.00;1.00;;;;;;4835545;29;20180;-84
2022/02/28 11:12:10;;;;;;;;;;;;;;;;;;;;;
2022/02/28 11:15:06;;;;;;;76.07;23.23;;;8.20;1.00;;;;;;4809863;29;20244;-85
2022/02/28 11:17:34;;;;;;;80.30;27.15;;;8.20;1.00;;;;;;4811394;29;20209;-85
2022/02/28 11:20:08;;;;;;;75.97;28.02;;;8.20;1.00;;;;;;4809801;29;20173;-84
2022/02/28 11:22:35;;;;;;;75.55;24.35;;;8.30;1.00;;;;;;4836311;29;20215;-84
2022/02/28 11:25:02;;;;;;;79.47;40.17;;;8.30;1.00;;;;;;4848169;29;20168;-85
2022/02/28 11:27:29;;;;;;;80.07;36.13;;;8.40;1.00;;;;;;4847478;29;20291;-85
2022/02/28 11:30:03;;;;;;;82.40;39.35;;;8.50;1.00;;;;;;4848361;29;20168;-85
2022/02/28 11:32:30;;;;;;;79.85;30.58;;;8.70;1.00;;;;;;4847788;29;20156;-85
2022/02/28 11:35:34;;;;;;;77.20;27.20;;;8.70;1.00;;;;;;4847333;29;20324;-85
2022/02/28 11:37:59;;;;;;;78.43;21.95;;;8.60;1.00;;;;;;4846757;29;20179;-84
2022/02/28 11:40:30;;;;;;;81.63;34.97;;;8.80;1.00;;;;;;4848079;29;20246;-84
2022/02/28 11:43:11;;;;;;;76.25;26.77;;;8.80;1.00;;;;;;4846671;29;20452;-85
2022/02/28 11:45:38;;;;;;;75.50;28.25;;;8.80;1.00;;;;;;4848435;29;20191;-84
2022/02/28 11:48:27;;;;;;;81.93;30.25;;;8.90;1.00;;;;;;4848129;29;20164;-85
2022/02/28 11:50:56;;;;;;;75.22;27.73;;;8.90;1.00;;;;;;4847588;29;20178;-84
2022/02/28 11:53:42;;;;;;;79.13;30.33;;;9.00;1.00;;;;;;4848306;29;20194;-85
2022/02/28 11:56:17;;;;;;;82.18;36.00;;;9.00;1.00;;;;;;4848212;29;20226;-85
2022/02/28 11:59:02;;;;;;;80.30;38.65;;;9.10;1.00;;;;;;4848328;29;20604;-85
2022/02/28 12:01:39;;;;;;;82.60;40.70;;;9.20;1.00;;;;;;4846454;29;20164;-85
2022/02/28 12:04:10;;;;;;;78.57;32.40;;;9.30;1.00;;;;;;4848090;29;20273;-85
2022/02/28 12:07:01;;;;;;;82.72;46.85;;;9.40;1.00;;;;;;4848144;29;20223;-85
2022/02/28 12:12:20;;;;;;;82.88;22.77;;;9.60;1.00;;;;;;4848061;29;20233;-85
2022/02/28 12:15:04;;;;;;;76.63;20.55;;;9.60;1.00;;;;;;4846849;29;20180;-85
2022/02/28 12:17:45;;;;;;;72.28;18.48;;;9.70;1.00;;;;;;4846392;29;20178;-85
2022/02/28 12:20:16;;;;;;;77.10;27.75;;;9.80;1.00;;;;;;4848572;29;20144;-85
2022/02/28 12:23:09;;;;;;;74.95;19.90;;;9.80;1.00;;;;;;4846763;29;20255;-85
2022/02/28 12:25:56;;;;;;;75.93;23.88;;;9.90;1.00;;;;;;4848812;29;20249;-85
2022/02/28 12:28:37;;;;;;;72.88;21.10;;;9.70;1.00;;;;;;4847242;29;20180;-85
2022/02/28 12:31:04;;;;;;;71.63;18.50;;;9.80;1.00;;;;;;4847466;29;20294;-85
2022/02/28 12:33:33;;;;;;;79.88;25.25;;;9.80;1.00;;;;;;4848283;29;20179;-85
2022/02/28 12:36:16;;;;;;;75.43;18.05;;;9.90;1.00;;;;;;4847654;29;20614;-85
2022/02/28 12:38:45;;;;;;;76.05;21.30;;;9.80;1.00;;;;;;4846996;29;20160;-85
2022/02/28 12:41:18;;;;;;;75.22;25.23;;;9.80;1.00;;;;;;4847716;29;20183;-85
2022/02/28 12:43:45;;;;;;;78.43;25.90;;;9.90;1.00;;;;;;4848835;29;20190;-85
2022/02/28 12:46:16;;;;;;;72.80;12.93;;;10.00;1.00;;;;;;4864989;29;20196;-85
2022/02/28 12:48:45;;;;;;;76.97;30.75;;;10.00;1.00;;;;;;4851496;29;20176;-85
2022/02/28 12:51:13;;;;;;;82.40;30.38;;;10.10;1.00;;;;;;4850483;29;20168;-85